sensor_id;sensor_type;location;lat;lon;timestamp;pressure;altitude;pressure_sealevel;temperature;humidity
15880;BME280;61999;51.514;14.614;2023-02-16T00:01:22;100862.25;;;-2.11;48.05
15880;BME280;61999;51.514;14.614;2023-02-16T00:03:53;100863.66;;;-2.50;50.12
15880;BME280;61999;51.514;14.614;2023-02-16T00:06:22;100866.63;;;-2.14;48.68
15880;BME280;61999;51.514;14.614;2023-02-16T00:08:53;100860.66;;;-2.19;49.44
15880;BME280;61999;51.514;14.614;2023-02-16T00:11:27;100861.63;;;-2.26;49.86
15880;BME280;61999;51.514;14.614;2023-02-16T00:14:16;100863.91;;;-2.03;47.86
15880;BME280;61999;51.514;14.614;2023-02-16T00:16:46;100864.75;;;-2.03;47.64
15880;BME280;61999;51.514;14.614;2023-02-16T00:19:20;100865.59;;;-2.02;47.87
15880;BME280;61999;51.514;14.614;2023-02-16T00:21:50;100864.63;;;-1.94;46.98
15880;BME280;61999;51.514;14.614;2023-02-16T00:24:19;100862.81;;;-1.89;46.20
15880;BME280;61999;51.514;14.614;2023-02-16T00:26:47;100856.78;;;-1.88;46.37
15880;BME280;61999;51.514;14.614;2023-02-16T00:29:19;100855.53;;;-2.22;48.93
15880;BME280;61999;51.514;14.614;2023-02-16T00:31:51;100846.91;;;-2.20;48.01
15880;BME280;61999;51.514;14.614;2023-02-16T00:34:30;100847.34;;;-2.57;49.71
15880;BME280;61999;51.514;14.614;2023-02-16T00:37:01;100847.16;;;-2.38;49.20
15880;BME280;61999;51.514;14.614;2023-02-16T00:39:30;100844.84;;;-2.61;50.73
15880;BME280;61999;51.514;14.614;2023-02-16T00:42:01;100846.66;;;-2.69;51.33
15880;BME280;61999;51.514;14.614;2023-02-16T00:44:33;100844.81;;;-2.58;50.36
15880;BME280;61999;51.514;14.614;2023-02-16T00:47:16;100845.59;;;-2.51;50.19
15880;BME280;61999;51.514;14.614;2023-02-16T00:49:46;100840.56;;;-2.64;50.55
15880;BME280;61999;51.514;14.614;2023-02-16T00:52:30;100839.84;;;-2.75;51.55
15880;BME280;61999;51.514;14.614;2023-02-16T00:55:00;100835.31;;;-2.55;50.53
15880;BME280;61999;51.514;14.614;2023-02-16T00:57:43;100839.19;;;-2.92;52.13
15880;BME280;61999;51.514;14.614;2023-02-16T01:00:18;100834.25;;;-3.17;53.18
15880;BME280;61999;51.514;14.614;2023-02-16T01:02:49;100840.97;;;-2.99;52.74
15880;BME280;61999;51.514;14.614;2023-02-16T01:05:18;100825.06;;;-2.61;51.12
15880;BME280;61999;51.514;14.614;2023-02-16T01:07:46;100823.13;;;-2.43;49.70
15880;BME280;61999;51.514;14.614;2023-02-16T01:10:35;100823.53;;;-2.77;52.11
15880;BME280;61999;51.514;14.614;2023-02-16T01:13:18;100817.31;;;-2.61;50.76
15880;BME280;61999;51.514;14.614;2023-02-16T01:15:46;100812.06;;;-2.55;51.00
15880;BME280;61999;51.514;14.614;2023-02-16T01:18:17;100821.59;;;-3.40;54.24
15880;BME280;61999;51.514;14.614;2023-02-16T01:20:46;100822.53;;;-3.52;54.64
15880;BME280;61999;51.514;14.614;2023-02-16T01:23:14;100824.09;;;-3.32;54.49
15880;BME280;61999;51.514;14.614;2023-02-16T01:25:42;100818.72;;;-3.11;53.45
15880;BME280;61999;51.514;14.614;2023-02-16T01:28:18;100813.81;;;-3.35;54.72
15880;BME280;61999;51.514;14.614;2023-02-16T01:30:46;100819.16;;;-3.60;56.05
15880;BME280;61999;51.514;14.614;2023-02-16T01:33:16;100823.16;;;-3.24;55.04
15880;BME280;61999;51.514;14.614;2023-02-16T01:35:44;100821.25;;;-3.05;54.06
15880;BME280;61999;51.514;14.614;2023-02-16T01:38:18;100819.50;;;-3.01;53.51
15880;BME280;61999;51.514;14.614;2023-02-16T01:40:56;100823.94;;;-3.17;54.08
15880;BME280;61999;51.514;14.614;2023-02-16T01:43:36;100829.53;;;-3.66;56.14
15880;BME280;61999;51.514;14.614;2023-02-16T01:46:15;100822.06;;;-4.01;57.53
15880;BME280;61999;51.514;14.614;2023-02-16T01:48:45;100821.22;;;-4.11;57.96
15880;BME280;61999;51.514;14.614;2023-02-16T01:51:21;100820.97;;;-3.71;56.71
15880;BME280;61999;51.514;14.614;2023-02-16T01:53:54;100823.31;;;-3.40;55.97
15880;BME280;61999;51.514;14.614;2023-02-16T01:56:33;100816.09;;;-3.06;54.35
15880;BME280;61999;51.514;14.614;2023-02-16T01:59:08;100808.16;;;-2.86;53.09
15880;BME280;61999;51.514;14.614;2023-02-16T02:01:47;100814.84;;;-2.70;51.89
15880;BME280;61999;51.514;14.614;2023-02-16T02:04:28;100816.44;;;-2.60;51.18
15880;BME280;61999;51.514;14.614;2023-02-16T02:07:23;100810.28;;;-2.51;50.05
15880;BME280;61999;51.514;14.614;2023-02-16T02:10:01;100805.94;;;-2.44;49.72
15880;BME280;61999;51.514;14.614;2023-02-16T02:12:38;100800.72;;;-2.43;48.87
15880;BME280;61999;51.514;14.614;2023-02-16T02:15:10;100801.53;;;-2.39;48.63
15880;BME280;61999;51.514;14.614;2023-02-16T02:17:39;100795.47;;;-2.35;48.42
15880;BME280;61999;51.514;14.614;2023-02-16T02:20:20;100793.72;;;-2.33;48.34
15880;BME280;61999;51.514;14.614;2023-02-16T02:23:34;100785.16;;;-2.37;47.61
15880;BME280;61999;51.514;14.614;2023-02-16T02:26:42;100785.19;;;-2.38;47.93
15880;BME280;61999;51.514;14.614;2023-02-16T02:30:12;100772.31;;;-2.41;47.53
15880;BME280;61999;51.514;14.614;2023-02-16T02:37:15;100777.84;;;-2.67;49.75
15880;BME280;61999;51.514;14.614;2023-02-16T02:40:00;100774.28;;;-2.59;48.31
15880;BME280;61999;51.514;14.614;2023-02-16T02:42:41;100781.97;;;-2.56;48.03
15880;BME280;61999;51.514;14.614;2023-02-16T02:45:21;100778.50;;;-2.55;47.53
15880;BME280;61999;51.514;14.614;2023-02-16T02:47:50;100772.50;;;-2.55;47.31
15880;BME280;61999;51.514;14.614;2023-02-16T02:50:40;100778.50;;;-2.55;47.41
15880;BME280;61999;51.514;14.614;2023-02-16T02:53:30;100777.66;;;-2.57;47.24
15880;BME280;61999;51.514;14.614;2023-02-16T02:56:00;100775.97;;;-2.56;46.91
15880;BME280;61999;51.514;14.614;2023-02-16T02:58:55;100782.03;;;-2.59;46.80
15880;BME280;61999;51.514;14.614;2023-02-16T03:01:49;100786.34;;;-2.61;47.06
15880;BME280;61999;51.514;14.614;2023-02-16T03:04:24;100778.63;;;-2.64;46.70
15880;BME280;61999;51.514;14.614;2023-02-16T03:06:56;100779.50;;;-2.63;46.59
15880;BME280;61999;51.514;14.614;2023-02-16T03:09:26;100782.94;;;-2.64;46.30
15880;BME280;61999;51.514;14.614;2023-02-16T03:11:56;100770.91;;;-2.65;46.64
15880;BME280;61999;51.514;14.614;2023-02-16T03:14:48;100783.84;;;-2.67;46.91
15880;BME280;61999;51.514;14.614;2023-02-16T03:17:24;100783.03;;;-2.70;46.76
15880;BME280;61999;51.514;14.614;2023-02-16T03:20:13;100783.94;;;-2.73;46.28
15880;BME280;61999;51.514;14.614;2023-02-16T03:23:01;100794.28;;;-2.76;46.45
15880;BME280;61999;51.514;14.614;2023-02-16T03:25:51;100790.84;;;-2.78;46.45
15880;BME280;61999;51.514;14.614;2023-02-16T03:28:41;100794.31;;;-2.82;46.36
15880;BME280;61999;51.514;14.614;2023-02-16T03:31:33;100796.13;;;-2.89;46.56
15880;BME280;61999;51.514;14.614;2023-02-16T03:34:05;100790.97;;;-2.89;46.33
15880;BME280;61999;51.514;14.614;2023-02-16T03:36:39;100787.56;;;-2.89;46.43
15880;BME280;61999;51.514;14.614;2023-02-16T03:39:08;100797.03;;;-2.90;46.90
15880;BME280;61999;51.514;14.614;2023-02-16T03:41:41;100797.00;;;-2.88;46.29
15880;BME280;61999;51.514;14.614;2023-02-16T03:44:10;100806.47;;;-2.89;46.60
15880;BME280;61999;51.514;14.614;2023-02-16T03:46:39;100792.72;;;-2.89;46.11
15880;BME280;61999;51.514;14.614;2023-02-16T03:49:08;100794.44;;;-2.90;46.43
15880;BME280;61999;51.514;14.614;2023-02-16T03:51:36;100795.31;;;-2.92;46.38
15880;BME280;61999;51.514;14.614;2023-02-16T03:54:04;100791.91;;;-2.93;46.33
15880;BME280;61999;51.514;14.614;2023-02-16T03:56:32;100797.06;;;-2.94;46.43
15880;BME280;61999;51.514;14.614;2023-02-16T03:59:00;100792.78;;;-2.97;45.85
15880;BME280;61999;51.514;14.614;2023-02-16T04:01:28;100788.50;;;-2.98;45.99
15880;BME280;61999;51.514;14.614;2023-02-16T04:03:57;100795.41;;;-2.98;45.88
15880;BME280;61999;51.514;14.614;2023-02-16T04:06:25;100794.59;;;-3.04;46.30
15880;BME280;61999;51.514;14.614;2023-02-16T04:08:53;100791.16;;;-3.06;46.55
15880;BME280;61999;51.514;14.614;2023-02-16T04:11:21;100792.00;;;-3.05;46.97
15880;BME280;61999;51.514;14.614;2023-02-16T04:14:06;100790.31;;;-3.06;46.53
15880;BME280;61999;51.514;14.614;2023-02-16T04:16:34;100791.16;;;-3.06;46.27
15880;BME280;61999;51.514;14.614;2023-02-16T04:19:03;100780.84;;;-3.06;46.35
15880;BME280;61999;51.514;14.614;2023-02-16T04:21:32;100780.84;;;-3.06;45.97
15880;BME280;61999;51.514;14.614;2023-02-16T04:24:00;100789.50;;;-3.10;46.39
15880;BME280;61999;51.514;14.614;2023-02-16T04:26:28;100795.50;;;-3.09;46.52
15880;BME280;61999;51.514;14.614;2023-02-16T04:28:56;100782.63;;;-3.11;46.07
15880;BME280;61999;51.514;14.614;2023-02-16T04:31:24;100780.91;;;-3.12;46.17
15880;BME280;61999;51.514;14.614;2023-02-16T04:33:52;100786.97;;;-3.13;46.33
15880;BME280;61999;51.514;14.614;2023-02-16T04:36:21;100772.34;;;-3.14;45.96
15880;BME280;61999;51.514;14.614;2023-02-16T04:38:49;100771.50;;;-3.14;45.77
15880;BME280;61999;51.514;14.614;2023-02-16T04:41:17;100772.38;;;-3.15;46.10
15880;BME280;61999;51.514;14.614;2023-02-16T04:43:45;100774.94;;;-3.15;45.93
15880;BME280;61999;51.514;14.614;2023-02-16T04:46:13;100768.97;;;-3.19;46.11
15880;BME280;61999;51.514;14.614;2023-02-16T04:48:41;100771.56;;;-3.20;45.94
15880;BME280;61999;51.514;14.614;2023-02-16T04:51:09;100768.97;;;-3.22;45.68
15880;BME280;61999;51.514;14.614;2023-02-16T04:53:38;100775.09;;;-3.28;45.92
15880;BME280;61999;51.514;14.614;2023-02-16T04:56:08;100775.13;;;-3.32;46.50
15880;BME280;61999;51.514;14.614;2023-02-16T04:58:36;100784.59;;;-3.34;45.99
15880;BME280;61999;51.514;14.614;2023-02-16T05:01:04;100777.75;;;-3.38;46.31
15880;BME280;61999;51.514;14.614;2023-02-16T05:03:33;100783.75;;;-3.39;46.30
15880;BME280;61999;51.514;14.614;2023-02-16T05:06:01;100782.91;;;-3.40;46.15
15880;BME280;61999;51.514;14.614;2023-02-16T05:08:29;100777.78;;;-3.41;46.31
15880;BME280;61999;51.514;14.614;2023-02-16T05:10:58;100774.38;;;-3.43;46.20
15880;BME280;61999;51.514;14.614;2023-02-16T05:13:44;100788.13;;;-3.46;46.22
15880;BME280;61999;51.514;14.614;2023-02-16T05:16:30;100795.03;;;-3.50;46.27
15880;BME280;61999;51.514;14.614;2023-02-16T05:18:57;100784.75;;;-3.50;46.34
15880;BME280;61999;51.514;14.614;2023-02-16T05:21:25;100783.00;;;-3.48;46.77
15880;BME280;61999;51.514;14.614;2023-02-16T05:24:03;100787.31;;;-3.50;46.27
15880;BME280;61999;51.514;14.614;2023-02-16T05:26:35;100787.28;;;-3.48;46.36
15880;BME280;61999;51.514;14.614;2023-02-16T05:29:05;100787.31;;;-3.51;46.45
15880;BME280;61999;51.514;14.614;2023-02-16T05:31:33;100790.78;;;-3.52;47.52
15880;BME280;61999;51.514;14.614;2023-02-16T05:34:01;100791.59;;;-3.49;46.76
15880;BME280;61999;51.514;14.614;2023-02-16T05:36:29;100791.59;;;-3.49;46.05
15880;BME280;61999;51.514;14.614;2023-02-16T05:38:58;100795.88;;;-3.46;46.24
15880;BME280;61999;51.514;14.614;2023-02-16T05:41:26;100794.16;;;-3.49;46.76
15880;BME280;61999;51.514;14.614;2023-02-16T05:43:58;100794.16;;;-3.47;47.00
15880;BME280;61999;51.514;14.614;2023-02-16T05:46:29;100794.22;;;-3.56;47.97
15880;BME280;61999;51.514;14.614;2023-02-16T05:48:58;100791.66;;;-3.55;47.89
15880;BME280;61999;51.514;14.614;2023-02-16T05:51:27;100787.38;;;-3.57;49.12
15880;BME280;61999;51.514;14.614;2023-02-16T05:53:56;100792.47;;;-3.50;47.68
15880;BME280;61999;51.514;14.614;2023-02-16T05:56:25;100796.00;;;-3.61;49.52
15880;BME280;61999;51.514;14.614;2023-02-16T05:58:54;100795.03;;;-3.50;47.85
15880;BME280;61999;51.514;14.614;2023-02-16T06:01:22;100794.19;;;-3.52;48.84
15880;BME280;61999;51.514;14.614;2023-02-16T06:03:50;100795.03;;;-3.47;47.80
15880;BME280;61999;51.514;14.614;2023-02-16T06:06:18;100797.56;;;-3.45;47.72
15880;BME280;61999;51.514;14.614;2023-02-16T06:08:46;100790.75;;;-3.49;48.84
15880;BME280;61999;51.514;14.614;2023-02-16T06:11:14;100796.06;;;-3.69;50.83
15880;BME280;61999;51.514;14.614;2023-02-16T06:14:02;100790.75;;;-3.51;49.08
15880;BME280;61999;51.514;14.614;2023-02-16T06:16:32;100790.75;;;-3.48;48.46
15880;BME280;61999;51.514;14.614;2023-02-16T06:19:01;100782.97;;;-3.44;48.83
15880;BME280;61999;51.514;14.614;2023-02-16T06:21:29;100782.91;;;-3.38;48.26
15880;BME280;61999;51.514;14.614;2023-02-16T06:23:58;100781.16;;;-3.36;47.69
15880;BME280;61999;51.514;14.614;2023-02-16T06:26:26;100772.53;;;-3.32;47.97
15880;BME280;61999;51.514;14.614;2023-02-16T06:28:55;100779.44;;;-3.33;47.92
15880;BME280;61999;51.514;14.614;2023-02-16T06:31:25;100780.25;;;-3.28;47.54
15880;BME280;61999;51.514;14.614;2023-02-16T06:33:53;100783.69;;;-3.32;48.32
15880;BME280;61999;51.514;14.614;2023-02-16T06:36:23;100782.81;;;-3.28;48.54
15880;BME280;61999;51.514;14.614;2023-02-16T06:38:51;100782.28;;;-3.62;51.31
15880;BME280;61999;51.514;14.614;2023-02-16T06:41:19;100782.69;;;-4.23;54.63
15880;BME280;61999;51.514;14.614;2023-02-16T06:43:58;100791.06;;;-3.89;53.68
15880;BME280;61999;51.514;14.614;2023-02-16T06:46:28;100789.34;;;-3.88;54.29
15880;BME280;61999;51.514;14.614;2023-02-16T06:48:57;100789.66;;;-4.44;56.29
15880;BME280;61999;51.514;14.614;2023-02-16T06:51:26;100792.06;;;-4.07;55.50
15880;BME280;61999;51.514;14.614;2023-02-16T06:53:54;100799.13;;;-4.49;57.12
15880;BME280;61999;51.514;14.614;2023-02-16T06:56:22;100800.81;;;-4.42;57.55
15880;BME280;61999;51.514;14.614;2023-02-16T06:58:50;100806.91;;;-4.66;58.41
15880;BME280;61999;51.514;14.614;2023-02-16T07:01:18;100796.50;;;-4.43;57.82
15880;BME280;61999;51.514;14.614;2023-02-16T07:03:51;100800.94;;;-4.72;59.11
15880;BME280;61999;51.514;14.614;2023-02-16T07:06:20;100800.19;;;-5.00;60.70
15880;BME280;61999;51.514;14.614;2023-02-16T07:08:49;100801.00;;;-4.94;60.28
15880;BME280;61999;51.514;14.614;2023-02-16T07:11:18;100797.63;;;-5.14;61.68
15880;BME280;61999;51.514;14.614;2023-02-16T07:13:47;100795.13;;;-5.51;62.90
15880;BME280;61999;51.514;14.614;2023-02-16T07:16:15;100799.44;;;-5.56;63.59
15880;BME280;61999;51.514;14.614;2023-02-16T07:18:43;100808.00;;;-5.65;63.80
15880;BME280;61999;51.514;14.614;2023-02-16T07:21:14;100805.41;;;-5.53;64.06
15880;BME280;61999;51.514;14.614;2023-02-16T07:23:42;100799.41;;;-5.35;64.35
15880;BME280;61999;51.514;14.614;2023-02-16T07:26:11;100802.81;;;-5.23;63.58
15880;BME280;61999;51.514;14.614;2023-02-16T07:28:39;100798.53;;;-5.28;63.32
15880;BME280;61999;51.514;14.614;2023-02-16T07:31:10;100794.97;;;-4.77;62.49
15880;BME280;61999;51.514;14.614;2023-02-16T07:33:39;100797.19;;;-4.05;59.67
15880;BME280;61999;51.514;14.614;2023-02-16T07:36:09;100802.44;;;-4.28;59.80
15880;BME280;61999;51.514;14.614;2023-02-16T07:38:39;100805.28;;;-4.91;61.14
15880;BME280;61999;51.514;14.614;2023-02-16T07:41:08;100803.56;;;-4.91;62.84
15880;BME280;61999;51.514;14.614;2023-02-16T07:43:37;100805.88;;;-4.26;60.11
15880;BME280;61999;51.514;14.614;2023-02-16T07:46:08;100805.88;;;-4.29;59.80
15880;BME280;61999;51.514;14.614;2023-02-16T07:48:36;100791.16;;;-4.01;59.14
15880;BME280;61999;51.514;14.614;2023-02-16T07:51:05;100792.63;;;-3.70;58.20
15880;BME280;61999;51.514;14.614;2023-02-16T07:53:33;100789.06;;;-3.55;57.63
15880;BME280;61999;51.514;14.614;2023-02-16T07:56:03;100785.00;;;-3.83;58.69
15880;BME280;61999;51.514;14.614;2023-02-16T07:58:31;100789.81;;;-3.40;57.75
15880;BME280;61999;51.514;14.614;2023-02-16T08:01:08;100797.16;;;-4.02;58.75
15880;BME280;61999;51.514;14.614;2023-02-16T08:03:36;100799.03;;;-4.27;60.01
15880;BME280;61999;51.514;14.614;2023-02-16T08:06:05;100800.19;;;-3.50;57.97
15880;BME280;61999;51.514;14.614;2023-02-16T08:08:35;100805.41;;;-3.56;58.06
15880;BME280;61999;51.514;14.614;2023-02-16T08:11:09;100811.69;;;-2.96;56.69
15880;BME280;61999;51.514;14.614;2023-02-16T08:13:38;100806.94;;;-3.36;56.91
15880;BME280;61999;51.514;14.614;2023-02-16T08:16:11;100814.81;;;-3.52;57.86
15880;BME280;61999;51.514;14.614;2023-02-16T08:18:39;100814.28;;;-3.94;59.31
15880;BME280;61999;51.514;14.614;2023-02-16T08:21:10;100806.63;;;-4.01;60.37
15880;BME280;61999;51.514;14.614;2023-02-16T08:23:41;100807.44;;;-3.98;59.91
15880;BME280;61999;51.514;14.614;2023-02-16T08:26:16;100809.84;;;-3.73;59.57
15880;BME280;61999;51.514;14.614;2023-02-16T08:28:46;100807.44;;;-3.02;58.35
15880;BME280;61999;51.514;14.614;2023-02-16T08:31:18;100809.88;;;-2.88;56.82
15880;BME280;61999;51.514;14.614;2023-02-16T08:33:47;100823.84;;;-3.08;56.25
15880;BME280;61999;51.514;14.614;2023-02-16T08:36:17;100820.41;;;-3.08;57.98
15880;BME280;61999;51.514;14.614;2023-02-16T08:38:46;100813.84;;;-2.58;56.01
15880;BME280;61999;51.514;14.614;2023-02-16T08:41:18;100812.56;;;-2.28;55.75
15880;BME280;61999;51.514;14.614;2023-02-16T08:43:47;100818.16;;;-1.97;53.48
15880;BME280;61999;51.514;14.614;2023-02-16T08:46:17;100804.34;;;-1.40;53.48
15880;BME280;61999;51.514;14.614;2023-02-16T08:48:45;100809.94;;;-1.65;53.35
15880;BME280;61999;51.514;14.614;2023-02-16T08:51:14;100807.50;;;-1.75;53.28
15880;BME280;61999;51.514;14.614;2023-02-16T08:53:43;100812.09;;;-1.94;53.62
15880;BME280;61999;51.514;14.614;2023-02-16T08:56:13;100810.25;;;-1.86;53.56
15880;BME280;61999;51.514;14.614;2023-02-16T08:58:44;100808.00;;;-1.50;53.66
15880;BME280;61999;51.514;14.614;2023-02-16T09:01:13;100806.94;;;-0.92;51.53
15880;BME280;61999;51.514;14.614;2023-02-16T09:03:44;100802.84;;;-1.53;53.27
15880;BME280;61999;51.514;14.614;2023-02-16T09:06:14;100808.22;;;-0.69;51.53
15880;BME280;61999;51.514;14.614;2023-02-16T09:08:43;100812.66;;;-0.34;50.49
15880;BME280;61999;51.514;14.614;2023-02-16T09:11:14;100809.22;;;-0.36;50.05
15880;BME280;61999;51.514;14.614;2023-02-16T09:13:44;100804.69;;;0.12;49.48
15880;BME280;61999;51.514;14.614;2023-02-16T09:16:15;100807.88;;;-0.54;49.98
15880;BME280;61999;51.514;14.614;2023-02-16T09:18:44;100810.59;;;-0.18;49.98
15880;BME280;61999;51.514;14.614;2023-02-16T09:21:15;100801.56;;;-0.02;49.44
15880;BME280;61999;51.514;14.614;2023-02-16T09:23:48;100801.00;;;-0.16;49.63
15880;BME280;61999;51.514;14.614;2023-02-16T09:26:18;100803.47;;;-0.10;50.11
15880;BME280;61999;51.514;14.614;2023-02-16T09:28:49;100815.09;;;0.81;48.62
15880;BME280;61999;51.514;14.614;2023-02-16T09:31:21;100804.50;;;0.20;48.43
15880;BME280;61999;51.514;14.614;2023-02-16T09:33:53;100798.94;;;0.37;48.91
15880;BME280;61999;51.514;14.614;2023-02-16T09:36:22;100793.84;;;0.99;47.60
15880;BME280;61999;51.514;14.614;2023-02-16T09:38:51;100802.53;;;0.98;46.48
15880;BME280;61999;51.514;14.614;2023-02-16T09:41:31;100795.06;;;1.19;46.20
15880;BME280;61999;51.514;14.614;2023-02-16T09:44:12;100806.81;;;0.67;47.53
15880;BME280;61999;51.514;14.614;2023-02-16T09:46:45;100803.38;;;0.32;48.75
15880;BME280;61999;51.514;14.614;2023-02-16T09:49:25;100801.81;;;0.60;48.51
15880;BME280;61999;51.514;14.614;2023-02-16T09:52:03;100808.22;;;0.80;48.06
15880;BME280;61999;51.514;14.614;2023-02-16T09:54:44;100805.88;;;0.71;48.29
15880;BME280;61999;51.514;14.614;2023-02-16T09:57:22;100799.66;;;1.68;47.16
15880;BME280;61999;51.514;14.614;2023-02-16T10:00:03;100800.53;;;1.39;46.71
15880;BME280;61999;51.514;14.614;2023-02-16T10:02:44;100793.06;;;1.27;47.51
15880;BME280;61999;51.514;14.614;2023-02-16T10:05:23;100801.47;;;0.40;49.31
15880;BME280;61999;51.514;14.614;2023-02-16T10:08:02;100791.13;;;1.04;49.52
15880;BME280;61999;51.514;14.614;2023-02-16T10:10:44;100795.66;;;1.86;45.83
15880;BME280;61999;51.514;14.614;2023-02-16T10:13:23;100786.28;;;1.81;46.97
15880;BME280;61999;51.514;14.614;2023-02-16T10:15:58;100787.56;;;1.08;47.94
15880;BME280;61999;51.514;14.614;2023-02-16T10:18:32;100780.59;;;1.98;46.52
15880;BME280;61999;51.514;14.614;2023-02-16T10:21:10;100783.41;;;3.18;44.82
15880;BME280;61999;51.514;14.614;2023-02-16T10:23:47;100786.31;;;3.11;43.26
15880;BME280;61999;51.514;14.614;2023-02-16T10:26:21;100783.19;;;1.98;44.98
15880;BME280;61999;51.514;14.614;2023-02-16T10:28:54;100779.81;;;1.07;47.10
15880;BME280;61999;51.514;14.614;2023-02-16T10:31:33;100786.53;;;1.14;47.21
15880;BME280;61999;51.514;14.614;2023-02-16T10:34:31;100786.94;;;0.98;48.20
15880;BME280;61999;51.514;14.614;2023-02-16T10:37:41;100778.94;;;1.37;48.69
15880;BME280;61999;51.514;14.614;2023-02-16T10:40:37;100767.19;;;2.36;45.71
15880;BME280;61999;51.514;14.614;2023-02-16T10:43:16;100774.31;;;2.81;43.91
15880;BME280;61999;51.514;14.614;2023-02-16T10:45:50;100786.19;;;2.65;44.75
15880;BME280;61999;51.514;14.614;2023-02-16T10:48:22;100779.19;;;2.40;45.22
15880;BME280;61999;51.514;14.614;2023-02-16T10:50:56;100771.84;;;3.94;43.56
15880;BME280;61999;51.514;14.614;2023-02-16T10:53:35;100761.19;;;3.99;43.23
15880;BME280;61999;51.514;14.614;2023-02-16T10:56:45;100759.28;;;5.44;40.15
15880;BME280;61999;51.514;14.614;2023-02-16T10:59:22;100756.03;;;4.19;40.68
15880;BME280;61999;51.514;14.614;2023-02-16T11:01:52;100743.59;;;5.44;39.61
15880;BME280;61999;51.514;14.614;2023-02-16T11:04:41;100742.31;;;5.72;38.82
15880;BME280;61999;51.514;14.614;2023-02-16T11:07:13;100741.94;;;4.85;39.36
15880;BME280;61999;51.514;14.614;2023-02-16T11:09:45;100740.69;;;5.13;39.22
15880;BME280;61999;51.514;14.614;2023-02-16T11:12:25;100727.25;;;4.82;39.05
15880;BME280;61999;51.514;14.614;2023-02-16T11:14:57;100717.44;;;5.44;39.29
15880;BME280;61999;51.514;14.614;2023-02-16T11:17:27;100714.69;;;5.47;38.95
15880;BME280;61999;51.514;14.614;2023-02-16T11:20:00;100729.09;;;4.99;38.84
15880;BME280;61999;51.514;14.614;2023-02-16T11:22:35;100721.19;;;4.61;39.66
15880;BME280;61999;51.514;14.614;2023-02-16T11:25:21;100713.72;;;6.38;37.28
15880;BME280;61999;51.514;14.614;2023-02-16T11:27:53;100699.91;;;7.03;35.75
15880;BME280;61999;51.514;14.614;2023-02-16T11:30:33;100697.63;;;6.79;35.95
15880;BME280;61999;51.514;14.614;2023-02-16T11:33:09;100697.03;;;6.74;36.73
15880;BME280;61999;51.514;14.614;2023-02-16T11:35:46;100696.66;;;7.14;35.58
15880;BME280;61999;51.514;14.614;2023-02-16T11:38:27;100705.03;;;5.86;37.53
15880;BME280;61999;51.514;14.614;2023-02-16T11:40:57;100700.91;;;6.50;37.26
15880;BME280;61999;51.514;14.614;2023-02-16T11:43:30;100703.25;;;6.38;36.98
15880;BME280;61999;51.514;14.614;2023-02-16T11:46:02;100712.81;;;6.22;37.21
15880;BME280;61999;51.514;14.614;2023-02-16T11:48:32;100702.25;;;6.41;37.47
15880;BME280;61999;51.514;14.614;2023-02-16T11:51:05;100702.38;;;6.55;36.20
15880;BME280;61999;51.514;14.614;2023-02-16T11:53:36;100704.03;;;6.23;37.90
15880;BME280;61999;51.514;14.614;2023-02-16T11:56:21;100706.97;;;5.99;37.34
15880;BME280;61999;51.514;14.614;2023-02-16T11:59:13;100708.97;;;7.29;34.44
15880;BME280;61999;51.514;14.614;2023-02-16T12:02:13;100696.81;;;6.79;34.92
15880;BME280;61999;51.514;14.614;2023-02-16T12:05:01;100710.19;;;7.85;33.29
15880;BME280;61999;51.514;14.614;2023-02-16T12:07:43;100703.44;;;7.02;34.61
15880;BME280;61999;51.514;14.614;2023-02-16T12:10:26;100699.03;;;6.69;34.79
15880;BME280;61999;51.514;14.614;2023-02-16T12:13:05;100705.06;;;6.71;35.51
15880;BME280;61999;51.514;14.614;2023-02-16T12:15:47;100691.31;;;6.15;35.59
15880;BME280;61999;51.514;14.614;2023-02-16T12:18:30;100695.00;;;8.20;34.05
15880;BME280;61999;51.514;14.614;2023-02-16T12:21:11;100697.84;;;7.71;33.52
15880;BME280;61999;51.514;14.614;2023-02-16T12:23:56;100688.44;;;6.88;35.64
15880;BME280;61999;51.514;14.614;2023-02-16T12:26:38;100692.59;;;6.41;34.67
15880;BME280;61999;51.514;14.614;2023-02-16T12:29:23;100679.94;;;7.00;34.37
15880;BME280;61999;51.514;14.614;2023-02-16T12:32:16;100673.72;;;6.52;35.24
15880;BME280;61999;51.514;14.614;2023-02-16T12:35:03;100676.72;;;6.95;34.91
15880;BME280;61999;51.514;14.614;2023-02-16T12:37:44;100667.94;;;7.12;34.93
15880;BME280;61999;51.514;14.614;2023-02-16T12:40:29;100661.81;;;7.27;35.01
15880;BME280;61999;51.514;14.614;2023-02-16T12:43:29;100654.38;;;7.36;34.03
15880;BME280;61999;51.514;14.614;2023-02-16T12:46:04;100654.25;;;7.53;33.69
15880;BME280;61999;51.514;14.614;2023-02-16T12:48:41;100639.84;;;8.06;33.47
15880;BME280;61999;51.514;14.614;2023-02-16T12:51:18;100655.25;;;7.20;33.74
15880;BME280;61999;51.514;14.614;2023-02-16T12:53:56;100647.03;;;7.72;33.30
15880;BME280;61999;51.514;14.614;2023-02-16T12:56:33;100659.88;;;7.93;33.00
15880;BME280;61999;51.514;14.614;2023-02-16T12:59:17;100653.41;;;7.98;32.58
15880;BME280;61999;51.514;14.614;2023-02-16T13:01:50;100668.34;;;6.88;33.73
15880;BME280;61999;51.514;14.614;2023-02-16T13:04:29;100642.56;;;7.28;34.52
15880;BME280;61999;51.514;14.614;2023-02-16T13:07:12;100641.09;;;8.58;31.98
15880;BME280;61999;51.514;14.614;2023-02-16T13:09:53;100642.19;;;9.38;31.09
15880;BME280;61999;51.514;14.614;2023-02-16T13:12:29;100642.63;;;9.72;30.00
15880;BME280;61999;51.514;14.614;2023-02-16T13:15:08;100641.88;;;9.16;30.16
15880;BME280;61999;51.514;14.614;2023-02-16T13:17:42;100635.75;;;8.74;30.28
15880;BME280;61999;51.514;14.614;2023-02-16T13:20:15;100634.22;;;8.69;31.41
15880;BME280;61999;51.514;14.614;2023-02-16T13:23:30;100622.03;;;10.30;28.55
15880;BME280;61999;51.514;14.614;2023-02-16T13:26:36;100630.97;;;8.52;31.25